createdAt,value
2017-11-20T00:00:13.208Z,77.71
2017-11-20T00:01:20.490Z,77.69
2017-11-20T00:02:27.673Z,77.63
2017-11-20T00:03:34.248Z,77.63
2017-11-20T00:04:41.054Z,77.59
2017-11-20T00:05:47.845Z,77.55
2017-11-20T00:06:54.817Z,77.48
2017-11-20T00:08:01.499Z,77.45
2017-11-20T00:09:08.356Z,77.41
2017-11-20T00:10:15.362Z,77.42
2017-11-20T00:11:22.238Z,77.41
2017-11-20T00:12:29.107Z,77.35
2017-11-20T00:13:36.037Z,77.32
2017-11-20T00:14:42.896Z,77.29
2017-11-20T00:15:49.732Z,77.22
2017-11-20T00:16:56.602Z,77.19
2017-11-20T00:18:03.427Z,77.11
2017-11-20T00:19:10.242Z,77.10
2017-11-20T00:20:17.070Z,77.04
2017-11-20T00:21:23.916Z,76.97
2017-11-20T00:22:30.727Z,76.97
2017-11-20T00:23:37.598Z,76.91
2017-11-20T00:24:44.382Z,76.90
2017-11-20T00:25:51.263Z,76.89
2017-11-20T00:26:58.033Z,76.85
2017-11-20T00:28:04.789Z,76.81
2017-11-20T00:29:11.650Z,76.76
2017-11-20T00:30:18.416Z,76.73
2017-11-20T00:31:25.290Z,76.72
2017-11-20T00:32:32.054Z,76.72
2017-11-20T00:33:38.725Z,76.70
2017-11-20T00:34:45.646Z,76.68
2017-11-20T00:35:52.555Z,76.69
2017-11-20T00:36:59.382Z,76.65
2017-11-20T00:38:06.358Z,76.68
2017-11-20T00:39:13.189Z,76.71
2017-11-20T00:40:20.047Z,76.71
2017-11-20T00:41:26.895Z,76.72
2017-11-20T00:42:33.764Z,76.75
2017-11-20T00:43:40.889Z,76.72
2017-11-20T00:44:47.686Z,76.75
2017-11-20T00:45:54.574Z,76.80
2017-11-20T00:47:01.380Z,76.80
2017-11-20T00:48:08.301Z,76.81
2017-11-20T00:49:15.097Z,76.82
2017-11-20T00:50:21.893Z,76.86
2017-11-20T00:51:28.822Z,76.85
2017-11-20T00:52:35.962Z,76.86
2017-11-20T00:53:42.843Z,76.87
2017-11-20T00:54:49.692Z,76.88
2017-11-20T00:55:56.602Z,76.91
2017-11-20T00:57:03.665Z,76.91
2017-11-20T00:58:10.582Z,76.91
2017-11-20T00:59:17.491Z,76.95
2017-11-20T01:00:24.343Z,76.97
2017-11-20T01:01:31.294Z,77.01
2017-11-20T01:02:38.250Z,77.02
2017-11-20T01:03:45.199Z,77.03
2017-11-20T01:04:52.283Z,77.05
2017-11-20T01:05:59.375Z,77.05
2017-11-20T01:07:06.314Z,77.05
2017-11-20T01:08:13.065Z,77.06
2017-11-20T01:09:19.863Z,77.10
2017-11-20T01:10:26.675Z,77.12
2017-11-20T01:11:34.270Z,77.12
2017-11-20T01:12:40.656Z,77.14
2017-11-20T01:13:47.478Z,77.15
2017-11-20T01:14:54.413Z,77.16
2017-11-20T01:16:01.327Z,77.19
2017-11-20T01:17:08.078Z,77.17
2017-11-20T01:18:14.919Z,77.19
2017-11-20T01:19:21.667Z,77.18
2017-11-20T01:20:28.576Z,77.19
2017-11-20T01:21:35.489Z,77.21
2017-11-20T01:22:42.450Z,77.23
2017-11-20T01:23:49.411Z,77.24
2017-11-20T01:24:56.122Z,77.24
2017-11-20T01:26:03.158Z,77.22
2017-11-20T01:27:10.015Z,77.20
2017-11-20T01:28:17.052Z,77.16
2017-11-20T01:29:23.883Z,77.15
2017-11-20T01:30:30.780Z,77.15
2017-11-20T01:31:37.796Z,77.13
2017-11-20T01:32:44.704Z,77.09
2017-11-20T01:33:51.510Z,77.10
2017-11-20T01:34:58.417Z,77.10
2017-11-20T01:36:05.299Z,77.09
2017-11-20T01:37:12.279Z,77.07
2017-11-20T01:38:19.169Z,77.09
2017-11-20T01:39:26.078Z,77.08
2017-11-20T01:40:33.064Z,77.07
2017-11-20T01:41:40.010Z,77.07
2017-11-20T01:42:46.867Z,77.05
2017-11-20T01:43:53.866Z,77.07
2017-11-20T01:45:00.833Z,77.07
2017-11-20T01:46:07.735Z,77.03
2017-11-20T01:47:14.569Z,77.04
2017-11-20T01:48:21.599Z,77.05
2017-11-20T01:49:28.362Z,77.08
2017-11-20T01:50:35.163Z,77.10
2017-11-20T01:51:42.018Z,77.08
2017-11-20T01:52:48.922Z,77.09
2017-11-20T01:53:55.720Z,77.09
2017-11-20T01:55:02.661Z,77.12
2017-11-20T01:56:09.763Z,77.12
2017-11-20T01:57:16.832Z,77.14
2017-11-20T01:58:23.779Z,77.16
2017-11-20T01:59:30.884Z,77.19
2017-11-20T02:00:37.883Z,77.21
2017-11-20T02:01:44.931Z,77.22
2017-11-20T02:02:51.979Z,77.20
2017-11-20T02:03:58.964Z,77.22
2017-11-20T02:05:06.028Z,77.26
2017-11-20T02:06:12.790Z,77.31
2017-11-20T02:07:19.809Z,77.30
2017-11-20T02:08:26.778Z,77.33
2017-11-20T02:09:33.775Z,77.36
2017-11-20T02:10:40.730Z,77.37
2017-11-20T02:11:47.646Z,77.40
2017-11-20T02:12:54.718Z,77.40
2017-11-20T02:14:01.752Z,77.42
2017-11-20T02:15:08.747Z,77.45
2017-11-20T02:16:15.754Z,77.46
2017-11-20T02:17:22.697Z,77.50
2017-11-20T02:18:29.589Z,77.52
2017-11-20T02:19:36.521Z,77.51
2017-11-20T02:20:43.519Z,77.52
2017-11-20T02:21:50.587Z,77.55
2017-11-20T02:22:57.502Z,77.56
2017-11-20T02:24:04.540Z,77.61
2017-11-20T02:25:11.380Z,77.61
2017-11-20T02:26:18.490Z,77.65
2017-11-20T02:27:25.481Z,77.63
2017-11-20T02:28:32.506Z,77.70
2017-11-20T02:29:39.573Z,77.72
2017-11-20T02:30:46.437Z,77.75
2017-11-20T02:31:53.600Z,77.82
2017-11-20T02:33:00.530Z,77.85
2017-11-20T02:34:07.207Z,77.90
2017-11-20T02:35:14.146Z,77.90
2017-11-20T02:36:21.086Z,77.95
2017-11-20T02:37:28.471Z,77.97
2017-11-20T02:38:35.127Z,77.97
2017-11-20T02:39:42.324Z,78.00
2017-11-20T02:40:49.389Z,78.02
2017-11-20T02:41:56.507Z,78.03
2017-11-20T02:43:03.294Z,78.03
2017-11-20T02:44:10.316Z,78.08
2017-11-20T02:45:17.431Z,78.04
2017-11-20T02:46:24.445Z,78.11
2017-11-20T02:47:31.427Z,78.14
2017-11-20T02:48:38.489Z,78.14
2017-11-20T02:49:45.454Z,78.16
2017-11-20T02:50:52.505Z,78.21
2017-11-20T02:51:59.478Z,78.27
2017-11-20T02:53:06.465Z,78.22
2017-11-20T02:54:13.519Z,78.25
2017-11-20T02:55:20.350Z,78.28
2017-11-20T02:56:27.478Z,78.31
2017-11-20T02:57:34.039Z,78.34
2017-11-20T02:58:40.958Z,78.37
2017-11-20T02:59:47.834Z,78.37
2017-11-20T03:00:54.694Z,78.37
2017-11-20T03:02:01.815Z,78.40
2017-11-20T03:03:08.791Z,78.43
2017-11-20T03:04:15.638Z,78.47
2017-11-20T03:05:22.621Z,78.49
2017-11-20T03:06:29.330Z,78.52
2017-11-20T03:07:36.039Z,78.53
2017-11-20T03:08:42.874Z,78.52
2017-11-20T03:09:49.799Z,78.53
2017-11-20T03:10:56.854Z,78.58
2017-11-20T03:12:03.776Z,78.61
2017-11-20T03:13:10.794Z,78.62
2017-11-20T03:14:17.706Z,78.69
2017-11-20T03:15:24.730Z,78.69
2017-11-20T03:16:31.575Z,78.72
2017-11-20T03:17:39.526Z,78.71
2017-11-20T03:18:45.368Z,78.71
2017-11-20T03:19:52.202Z,78.74
2017-11-20T03:20:59.363Z,78.79
2017-11-20T03:22:06.229Z,78.79
2017-11-20T03:23:13.161Z,78.84
2017-11-20T03:24:20.070Z,78.81
2017-11-20T03:25:26.894Z,78.84
2017-11-20T03:26:33.740Z,78.87
2017-11-20T03:27:40.690Z,78.91
2017-11-20T03:28:47.628Z,78.91
2017-11-20T03:29:54.490Z,78.95
2017-11-20T03:31:01.480Z,78.95
2017-11-20T03:32:08.584Z,78.97
2017-11-20T03:33:15.552Z,78.99
2017-11-20T03:34:22.574Z,79.03
2017-11-20T03:35:29.618Z,79.02
2017-11-20T03:36:36.462Z,79.05
2017-11-20T03:37:43.476Z,79.07
2017-11-20T03:38:50.423Z,79.07
2017-11-20T03:39:57.220Z,79.11
2017-11-20T03:41:04.122Z,79.11
2017-11-20T03:42:11.087Z,79.12
2017-11-20T03:43:18.094Z,79.11
2017-11-20T03:44:25.007Z,79.15
2017-11-20T03:45:32.094Z,79.15
2017-11-20T03:46:39.054Z,79.23
2017-11-20T03:47:46.076Z,79.22
2017-11-20T03:48:52.871Z,79.25
2017-11-20T03:49:59.965Z,79.26
2017-11-20T03:51:07.030Z,79.30
2017-11-20T03:52:14.014Z,79.32
2017-11-20T03:53:21.240Z,79.37
2017-11-20T03:54:27.647Z,79.36
2017-11-20T03:55:34.694Z,79.40
2017-11-20T03:56:41.637Z,79.40
2017-11-20T03:57:48.658Z,79.43
2017-11-20T03:58:55.553Z,79.43
2017-11-20T04:00:02.422Z,79.45
2017-11-20T04:01:09.174Z,79.45
2017-11-20T04:02:16.007Z,79.50
2017-11-20T04:03:22.793Z,79.48
2017-11-20T04:04:29.604Z,79.47
2017-11-20T04:05:36.523Z,79.51
2017-11-20T04:06:43.330Z,79.50
2017-11-20T04:07:50.128Z,79.55
2017-11-20T04:08:56.971Z,79.55
2017-11-20T04:10:03.777Z,79.58
2017-11-20T04:11:10.525Z,79.61
2017-11-20T04:12:17.439Z,79.64
2017-11-20T04:13:24.374Z,79.60
2017-11-20T04:14:31.150Z,79.62
2017-11-20T04:15:38.123Z,79.64
2017-11-20T04:16:45.037Z,79.65
2017-11-20T04:17:51.882Z,79.67
2017-11-20T04:18:58.678Z,79.70
2017-11-20T04:20:05.609Z,79.70
2017-11-20T04:21:12.468Z,79.70
2017-11-20T04:22:19.502Z,79.72
2017-11-20T04:23:26.344Z,79.73
2017-11-20T04:24:33.333Z,79.75
2017-11-20T04:25:40.211Z,79.76
2017-11-20T04:26:47.047Z,79.76
2017-11-20T04:27:53.813Z,79.80
2017-11-20T04:29:00.620Z,79.79
2017-11-20T04:30:07.707Z,79.78
2017-11-20T04:31:14.810Z,79.82
2017-11-20T04:32:21.762Z,79.84
2017-11-20T04:33:28.822Z,79.86
2017-11-20T04:34:35.763Z,79.88
2017-11-20T04:35:42.504Z,79.89
2017-11-20T04:36:49.436Z,79.94
2017-11-20T04:37:56.714Z,79.96
2017-11-20T04:39:03.742Z,79.96
2017-11-20T04:40:10.680Z,79.94
2017-11-20T04:41:17.519Z,79.96
2017-11-20T04:42:24.345Z,80.01
2017-11-20T04:43:31.062Z,80.04
2017-11-20T04:44:38.111Z,80.06
2017-11-20T04:45:45.007Z,80.05
2017-11-20T04:46:52.226Z,80.08
2017-11-20T04:47:59.089Z,80.06
2017-11-20T04:49:06.043Z,80.11
2017-11-20T04:50:12.907Z,80.12
2017-11-20T04:51:20.195Z,80.09
2017-11-20T04:52:27.142Z,80.11
2017-11-20T04:53:34.084Z,80.13
2017-11-20T04:54:40.942Z,80.15
2017-11-20T04:55:47.841Z,80.15
2017-11-20T04:56:54.882Z,80.17
2017-11-20T04:58:01.750Z,80.19
2017-11-20T04:59:08.570Z,80.18
2017-11-20T05:00:15.335Z,80.19
2017-11-20T05:01:22.403Z,80.23
2017-11-20T05:02:29.306Z,80.24
2017-11-20T05:03:36.164Z,80.24
2017-11-20T05:04:42.922Z,80.25
2017-11-20T05:05:49.769Z,80.25
2017-11-20T05:06:56.517Z,80.26
2017-11-20T05:08:03.491Z,80.27
2017-11-20T05:09:10.476Z,80.28
2017-11-20T05:10:17.295Z,80.26
2017-11-20T05:11:25.420Z,80.25
2017-11-20T05:12:31.449Z,80.23
2017-11-20T05:13:38.426Z,80.23
2017-11-20T05:14:45.134Z,80.22
2017-11-20T05:15:52.037Z,80.23
2017-11-20T05:16:59.072Z,80.21
2017-11-20T05:18:06.072Z,80.23
2017-11-20T05:19:12.889Z,80.26
2017-11-20T05:20:20.094Z,80.27
2017-11-20T05:21:27.174Z,80.27
2017-11-20T05:22:34.254Z,80.28
2017-11-20T05:23:41.107Z,80.25
2017-11-20T05:24:47.998Z,80.21
2017-11-20T05:25:54.724Z,80.22
2017-11-20T05:27:01.598Z,80.22
2017-11-20T05:28:08.432Z,80.16
2017-11-20T05:29:15.431Z,80.18
2017-11-20T05:30:22.168Z,80.20
2017-11-20T05:31:29.000Z,80.21
2017-11-20T05:32:35.878Z,80.24
2017-11-20T05:33:42.662Z,80.21
2017-11-20T05:34:49.378Z,80.18
2017-11-20T05:35:56.354Z,80.18
2017-11-20T05:37:03.158Z,80.18
2017-11-20T05:38:10.057Z,80.17
2017-11-20T05:39:16.834Z,80.15
2017-11-20T05:40:23.674Z,80.14
2017-11-20T05:41:30.631Z,80.16
2017-11-20T05:42:37.550Z,80.14
2017-11-20T05:43:44.427Z,80.15
2017-11-20T05:44:51.502Z,80.16
2017-11-20T05:45:58.338Z,80.16
2017-11-20T05:47:05.225Z,80.15
2017-11-20T05:48:12.260Z,80.12
2017-11-20T05:49:19.266Z,80.10
2017-11-20T05:50:26.012Z,80.13
2017-11-20T05:51:32.908Z,80.16
2017-11-20T05:52:39.782Z,80.16
2017-11-20T05:53:46.784Z,80.18
2017-11-20T05:54:53.707Z,80.20
2017-11-20T05:56:00.521Z,80.21
2017-11-20T05:57:07.195Z,80.22
2017-11-20T05:58:14.047Z,80.24
2017-11-20T05:59:20.851Z,80.22
2017-11-20T06:00:27.854Z,80.20
2017-11-20T06:01:34.861Z,80.21
2017-11-20T06:02:41.855Z,80.22
2017-11-20T06:03:48.833Z,80.21
2017-11-20T06:04:56.030Z,80.24
2017-11-20T06:06:02.866Z,80.24
2017-11-20T06:07:10.144Z,80.24
2017-11-20T06:08:16.850Z,80.25
2017-11-20T06:09:23.763Z,80.29
2017-11-20T06:10:30.766Z,80.31
2017-11-20T06:11:37.993Z,80.27
2017-11-20T06:12:44.607Z,80.25
2017-11-20T06:13:51.615Z,80.25
2017-11-20T06:14:58.577Z,80.25
2017-11-20T06:16:05.315Z,80.28
2017-11-20T06:17:12.207Z,80.33
2017-11-20T06:18:19.235Z,80.32
2017-11-20T06:19:25.958Z,80.34
2017-11-20T06:20:32.557Z,80.32
2017-11-20T06:21:39.695Z,80.33
2017-11-20T06:22:46.298Z,80.35
2017-11-20T06:23:53.387Z,80.36
2017-11-20T06:25:00.425Z,80.36
2017-11-20T06:26:07.333Z,80.33
2017-11-20T06:27:14.166Z,80.32
2017-11-20T06:28:21.160Z,80.29
2017-11-20T06:29:27.922Z,80.32
2017-11-20T06:30:34.818Z,80.37
2017-11-20T06:31:41.863Z,80.40
2017-11-20T06:32:48.888Z,80.43
2017-11-20T06:33:55.785Z,80.44
2017-11-20T06:35:02.527Z,80.48
2017-11-20T06:36:09.409Z,80.51
2017-11-20T06:37:16.298Z,80.53
2017-11-20T06:38:23.107Z,80.54
2017-11-20T06:39:30.070Z,80.53
2017-11-20T06:40:36.929Z,80.50
2017-11-20T06:41:43.959Z,80.51
2017-11-20T06:42:50.946Z,80.54
2017-11-20T06:43:57.919Z,80.55
2017-11-20T06:45:05.196Z,80.57
2017-11-20T06:46:11.610Z,80.56
2017-11-20T06:47:18.706Z,80.54
2017-11-20T06:48:25.802Z,80.54
2017-11-20T06:49:32.908Z,80.53
2017-11-20T06:50:39.894Z,80.55
2017-11-20T06:51:46.821Z,80.54
2017-11-20T06:52:53.694Z,80.55
2017-11-20T06:54:00.722Z,80.56
2017-11-20T06:55:07.739Z,80.55
2017-11-20T06:56:14.591Z,80.56
2017-11-20T06:57:21.579Z,80.55
2017-11-20T06:58:28.602Z,80.54
2017-11-20T06:59:35.282Z,80.53
2017-11-20T07:00:42.312Z,80.54
2017-11-20T07:01:49.378Z,80.56
2017-11-20T07:02:56.370Z,80.54
2017-11-20T07:04:03.385Z,80.56
2017-11-20T07:05:10.384Z,80.54
2017-11-20T07:06:17.454Z,80.54
2017-11-20T07:07:24.483Z,80.55
2017-11-20T07:08:31.589Z,80.57
2017-11-20T07:09:38.381Z,80.58
2017-11-20T07:10:45.510Z,80.60
2017-11-20T07:11:52.541Z,80.63
2017-11-20T07:12:59.641Z,80.66
2017-11-20T07:14:06.773Z,80.63
2017-11-20T07:15:13.807Z,80.68
2017-11-20T07:16:20.826Z,80.68
2017-11-20T07:17:27.972Z,80.70
2017-11-20T07:18:35.153Z,80.71
2017-11-20T07:19:42.095Z,80.72
2017-11-20T07:20:49.266Z,80.74
2017-11-20T07:21:56.453Z,80.71
2017-11-20T07:23:03.446Z,80.74
2017-11-20T07:24:10.507Z,80.72
2017-11-20T07:25:17.503Z,80.74
2017-11-20T07:26:24.615Z,80.75
2017-11-20T07:27:37.384Z,80.77
2017-11-20T07:28:44.550Z,80.77
2017-11-20T07:29:51.066Z,80.81
2017-11-20T07:30:58.264Z,80.83
2017-11-20T07:32:05.375Z,80.87
2017-11-20T07:33:12.516Z,80.87
2017-11-20T07:34:19.059Z,80.91
2017-11-20T07:35:26.223Z,80.94
2017-11-20T07:36:32.887Z,80.96
2017-11-20T07:37:47.590Z,81.00
2017-11-20T07:38:54.761Z,81.03
2017-11-20T07:40:01.511Z,81.06
2017-11-20T07:41:08.673Z,81.09
2017-11-20T07:42:15.643Z,81.16
2017-11-20T07:43:22.672Z,81.17
2017-11-20T07:44:29.763Z,81.21
2017-11-20T07:45:36.695Z,81.20
2017-11-20T07:46:43.702Z,81.20
2017-11-20T07:47:50.759Z,81.23
2017-11-20T07:48:57.746Z,81.23
2017-11-20T07:50:04.868Z,81.20
2017-11-20T07:51:11.879Z,81.21
2017-11-20T07:52:18.782Z,81.22
2017-11-20T07:53:25.749Z,81.20
2017-11-20T07:54:32.566Z,81.24
2017-11-20T07:55:39.480Z,81.27
2017-11-20T07:56:46.429Z,81.28
2017-11-20T07:57:53.196Z,81.28
2017-11-20T07:59:00.403Z,81.31
2017-11-20T08:00:07.453Z,81.34
2017-11-20T08:01:14.570Z,81.37
2017-11-20T08:02:21.376Z,81.39
2017-11-20T08:03:28.207Z,81.31
2017-11-20T08:04:35.438Z,81.32
2017-11-20T08:05:42.307Z,81.32
2017-11-20T08:06:49.219Z,81.33
2017-11-20T08:07:56.357Z,81.33
2017-11-20T08:09:03.355Z,81.38
2017-11-20T08:10:10.595Z,81.36
2017-11-20T08:11:16.998Z,81.38
2017-11-20T08:12:24.086Z,81.35
2017-11-20T08:13:30.709Z,81.35
2017-11-20T08:14:38.311Z,81.38
2017-11-20T08:15:44.722Z,81.38
2017-11-20T08:16:51.589Z,81.38
2017-11-20T08:17:58.524Z,81.41
2017-11-20T08:19:05.193Z,81.40
2017-11-20T08:20:12.117Z,81.43
2017-11-20T08:21:19.082Z,81.46
2017-11-20T08:22:26.073Z,81.46
2017-11-20T08:23:33.096Z,81.43
2017-11-20T08:24:40.007Z,81.46
2017-11-20T08:25:46.859Z,81.48
2017-11-20T08:26:53.875Z,81.49
2017-11-20T08:28:00.709Z,81.46
2017-11-20T08:29:07.535Z,81.47
2017-11-20T08:30:14.277Z,81.47
2017-11-20T08:31:21.288Z,81.52
2017-11-20T08:32:28.597Z,81.55
2017-11-20T08:33:35.105Z,81.58
2017-11-20T08:34:41.930Z,81.61
2017-11-20T08:35:48.707Z,81.64
2017-11-20T08:36:55.397Z,81.67
2017-11-20T08:38:02.414Z,81.67
2017-11-20T08:39:09.325Z,81.67
2017-11-20T08:40:16.146Z,81.67
2017-11-20T08:41:23.196Z,81.66
2017-11-20T08:42:30.024Z,81.66
2017-11-20T08:43:37.129Z,81.68
2017-11-20T08:44:44.102Z,81.73
2017-11-20T08:45:51.087Z,81.74
2017-11-20T08:46:58.018Z,81.76
2017-11-20T08:48:04.918Z,81.78
2017-11-20T08:49:11.883Z,81.77
2017-11-20T08:50:18.758Z,81.75
2017-11-20T08:51:25.690Z,81.75
2017-11-20T08:52:32.542Z,81.76
2017-11-20T08:53:39.402Z,81.79
2017-11-20T08:54:46.299Z,81.83
2017-11-20T08:55:53.067Z,81.80
2017-11-20T08:56:59.913Z,81.78
2017-11-20T08:58:06.846Z,81.75
2017-11-20T08:59:13.894Z,81.72
2017-11-20T09:00:20.842Z,81.76
2017-11-20T09:01:27.619Z,81.75
2017-11-20T09:02:34.683Z,81.71
2017-11-20T09:03:41.127Z,81.75
2017-11-20T09:04:48.196Z,81.73
2017-11-20T09:05:55.274Z,81.76
2017-11-20T09:07:02.267Z,81.78
2017-11-20T09:08:09.351Z,81.80
2017-11-20T09:09:16.111Z,81.73
2017-11-20T09:10:23.246Z,81.68
2017-11-20T09:11:30.138Z,81.75
2017-11-20T09:12:37.093Z,81.75
2017-11-20T09:13:44.219Z,81.76
2017-11-20T09:14:51.205Z,81.75
2017-11-20T09:15:58.195Z,81.75
2017-11-20T09:17:04.886Z,81.75
2017-11-20T09:18:11.967Z,81.75
2017-11-20T09:19:19.049Z,81.73
2017-11-20T09:20:26.098Z,81.68
2017-11-20T09:21:32.919Z,81.64
2017-11-20T09:22:39.957Z,81.59
2017-11-20T09:23:46.975Z,81.56
2017-11-20T09:24:53.734Z,81.55
2017-11-20T09:26:00.890Z,81.53
2017-11-20T09:27:07.558Z,81.50
2017-11-20T09:28:14.726Z,81.46
2017-11-20T09:29:22.673Z,81.50
2017-11-20T09:30:28.637Z,81.46
2017-11-20T09:31:35.730Z,81.42
2017-11-20T09:32:42.801Z,81.39
2017-11-20T09:33:49.719Z,81.38
2017-11-20T09:34:56.568Z,81.36
2017-11-20T09:36:03.456Z,81.39
2017-11-20T09:37:10.494Z,81.37
2017-11-20T09:38:17.557Z,81.33
2017-11-20T09:39:24.616Z,81.31
2017-11-20T09:40:31.567Z,81.31
2017-11-20T09:41:38.598Z,81.30
2017-11-20T09:42:45.738Z,81.29
2017-11-20T09:43:52.893Z,81.28
2017-11-20T09:44:59.701Z,81.27
2017-11-20T09:46:06.493Z,81.27
2017-11-20T09:47:13.474Z,81.30
2017-11-20T09:48:20.531Z,81.30
2017-11-20T09:49:27.475Z,81.32
2017-11-20T09:50:34.387Z,81.27
2017-11-20T09:51:41.255Z,81.29
2017-11-20T09:52:48.313Z,81.30
2017-11-20T09:53:55.335Z,81.27
2017-11-20T09:55:02.403Z,81.30
2017-11-20T09:56:09.374Z,81.35
2017-11-20T09:57:16.524Z,81.33
2017-11-20T09:58:23.587Z,81.33
2017-11-20T09:59:30.554Z,81.35
2017-11-20T10:00:37.531Z,81.34
2017-11-20T10:01:44.367Z,81.34
2017-11-20T10:02:51.394Z,81.34
2017-11-20T10:03:58.475Z,81.37
2017-11-20T10:05:05.507Z,81.41
2017-11-20T10:06:12.638Z,81.47
2017-11-20T10:07:19.782Z,81.45
2017-11-20T10:08:26.887Z,81.46
2017-11-20T10:09:33.913Z,81.47
2017-11-20T10:10:41.114Z,81.48
2017-11-20T10:11:47.809Z,81.48
2017-11-20T10:12:54.742Z,81.50
2017-11-20T10:14:01.703Z,81.45
2017-11-20T10:15:08.774Z,81.48
2017-11-20T10:16:15.955Z,81.52
2017-11-20T10:17:22.984Z,81.52
2017-11-20T10:18:29.974Z,81.59
2017-11-20T10:19:36.901Z,81.59
2017-11-20T10:20:44.010Z,81.59
2017-11-20T10:21:51.095Z,81.54
2017-11-20T10:22:58.208Z,81.53
2017-11-20T10:24:05.171Z,81.50
2017-11-20T10:25:12.385Z,81.50
2017-11-20T10:26:18.793Z,81.54
2017-11-20T10:27:25.804Z,81.53
2017-11-20T10:28:32.830Z,81.54
2017-11-20T10:29:39.630Z,81.58
2017-11-20T10:30:46.750Z,81.62
2017-11-20T10:31:53.910Z,81.60
2017-11-20T10:33:01.201Z,81.61
2017-11-20T10:34:07.888Z,81.64
2017-11-20T10:35:14.869Z,81.65
2017-11-20T10:36:22.198Z,81.65
2017-11-20T10:37:28.687Z,81.67
2017-11-20T10:38:35.619Z,81.63
2017-11-20T10:39:42.408Z,81.64
2017-11-20T10:40:49.758Z,81.72
2017-11-20T10:41:56.355Z,81.80
2017-11-20T10:43:03.462Z,81.77
2017-11-20T10:44:10.496Z,81.74
2017-11-20T10:45:17.550Z,81.71
2017-11-20T10:46:24.786Z,81.71
2017-11-20T10:47:31.846Z,81.71
2017-11-20T10:48:38.890Z,81.71
2017-11-20T10:49:45.894Z,81.68
2017-11-20T10:50:52.797Z,81.69
2017-11-20T10:51:59.591Z,81.72
2017-11-20T10:53:06.819Z,81.74
2017-11-20T10:54:14.628Z,81.74
2017-11-20T10:55:20.579Z,81.74
2017-11-20T10:56:27.228Z,81.76
2017-11-20T10:57:34.314Z,81.81
2017-11-20T10:58:41.276Z,81.85
2017-11-20T10:59:48.307Z,81.81
2017-11-20T11:00:54.986Z,81.81
2017-11-20T11:02:01.901Z,81.82
2017-11-20T11:03:08.544Z,81.83
2017-11-20T11:04:15.138Z,81.87
2017-11-20T11:05:22.220Z,81.90
2017-11-20T11:06:29.299Z,81.96
2017-11-20T11:07:36.441Z,81.97
2017-11-20T11:08:42.965Z,82.03
2017-11-20T11:09:50.295Z,82.03
2017-11-20T11:10:57.049Z,82.04
2017-11-20T11:12:03.945Z,82.04
2017-11-20T11:13:11.157Z,82.07
2017-11-20T11:14:18.120Z,82.08
2017-11-20T11:15:24.500Z,82.13
2017-11-20T11:16:31.574Z,82.14
2017-11-20T11:17:38.680Z,82.13
2017-11-20T11:18:45.612Z,82.14
2017-11-20T11:19:52.531Z,82.10
2017-11-20T11:21:00.116Z,82.04
2017-11-20T11:22:06.369Z,82.08
2017-11-20T11:23:13.372Z,82.08
2017-11-20T11:24:20.352Z,82.10
2017-11-20T11:25:27.453Z,82.05
2017-11-20T11:26:34.533Z,82.03
2017-11-20T11:27:41.572Z,82.04
2017-11-20T11:28:48.509Z,82.06
2017-11-20T11:29:55.644Z,82.05
2017-11-20T11:31:02.801Z,82.13
2017-11-20T11:32:09.965Z,82.17
2017-11-20T11:33:17.006Z,82.25
2017-11-20T11:34:24.007Z,82.25
2017-11-20T11:35:31.014Z,82.25
2017-11-20T11:36:37.869Z,82.27
2017-11-20T11:37:45.102Z,82.25
2017-11-20T11:38:52.174Z,82.27
2017-11-20T11:39:59.129Z,82.23
2017-11-20T11:41:06.183Z,82.19
2017-11-20T11:42:12.958Z,82.21
2017-11-20T11:43:19.881Z,82.15
2017-11-20T11:44:26.985Z,82.18
2017-11-20T11:45:34.085Z,82.19
2017-11-20T11:46:41.765Z,82.23
2017-11-20T11:47:48.475Z,82.19
2017-11-20T11:48:55.518Z,82.18
2017-11-20T11:50:02.650Z,82.18
2017-11-20T11:51:09.642Z,82.19
2017-11-20T11:52:16.573Z,82.16
2017-11-20T11:53:23.578Z,82.17
2017-11-20T11:54:30.497Z,82.18
2017-11-20T11:55:37.479Z,82.19
2017-11-20T11:56:44.591Z,82.27
2017-11-20T11:57:51.642Z,82.30
2017-11-20T11:58:58.800Z,82.26
2017-11-20T12:00:05.851Z,82.22
2017-11-20T12:01:13.148Z,82.22
2017-11-20T12:02:19.655Z,82.24
2017-11-20T12:03:26.614Z,82.19
2017-11-20T12:04:33.721Z,82.20
2017-11-20T12:05:40.458Z,82.22
2017-11-20T12:06:47.334Z,82.24
2017-11-20T12:07:54.351Z,82.25
2017-11-20T12:09:01.356Z,82.28
2017-11-20T12:10:08.233Z,82.33
2017-11-20T12:11:15.035Z,82.33
2017-11-20T12:12:21.989Z,82.34
2017-11-20T12:13:28.983Z,82.30
2017-11-20T12:14:35.966Z,82.33
2017-11-20T12:15:42.966Z,82.29
2017-11-20T12:16:52.656Z,82.32
2017-11-20T12:17:56.514Z,82.29
2017-11-20T12:19:03.835Z,82.29
2017-11-20T12:20:10.794Z,82.33
2017-11-20T12:21:17.840Z,82.33
2017-11-20T12:22:24.764Z,82.33
2017-11-20T12:23:31.725Z,82.35
2017-11-20T12:24:38.729Z,82.39
2017-11-20T12:25:45.562Z,82.35
2017-11-20T12:26:52.624Z,82.38
2017-11-20T12:27:59.550Z,82.37
2017-11-20T12:29:06.543Z,82.34
2017-11-20T12:30:13.474Z,82.38
2017-11-20T12:31:20.597Z,82.43
2017-11-20T12:32:27.451Z,82.44
2017-11-20T12:33:35.809Z,82.46
2017-11-20T12:34:41.119Z,82.47
2017-11-20T12:35:48.350Z,82.45
2017-11-20T12:36:55.077Z,82.49
2017-11-20T12:38:01.938Z,82.47
2017-11-20T12:39:09.006Z,82.48
2017-11-20T12:40:15.978Z,82.50
2017-11-20T12:41:22.939Z,82.55
2017-11-20T12:42:31.090Z,82.57
2017-11-20T12:43:38.185Z,82.57
2017-11-20T12:44:43.732Z,82.58
2017-11-20T12:52:21.343Z,82.66
2017-11-20T12:53:27.002Z,82.73
2017-11-20T12:56:47.687Z,82.86
2017-11-20T12:57:54.651Z,82.89
2017-11-20T12:59:01.716Z,82.90
2017-11-20T13:00:08.762Z,82.98
2017-11-20T13:01:15.670Z,82.98
2017-11-20T13:02:22.704Z,82.98
2017-11-20T13:03:29.377Z,82.97
2017-11-20T13:04:36.423Z,82.98
2017-11-20T13:05:43.324Z,83.02
2017-11-20T13:06:50.713Z,83.05
2017-11-20T13:07:57.618Z,83.12
2017-11-20T13:09:05.498Z,83.13
2017-11-20T13:10:11.843Z,83.12
2017-11-20T13:11:18.746Z,83.17
2017-11-20T13:12:25.538Z,83.20
2017-11-20T13:13:32.630Z,83.23
2017-11-20T13:14:39.554Z,83.29
2017-11-20T13:15:46.560Z,83.37
2017-11-20T13:16:53.524Z,83.44
2017-11-20T13:18:00.507Z,83.51
2017-11-20T13:19:07.608Z,83.56
2017-11-20T13:20:14.246Z,83.49
2017-11-20T13:21:21.315Z,83.52
2017-11-20T13:22:28.375Z,83.47
2017-11-20T13:23:35.586Z,83.44
2017-11-20T13:24:42.427Z,83.45
2017-11-20T13:25:49.497Z,83.42
2017-11-20T13:26:56.534Z,83.44
2017-11-20T13:28:03.575Z,83.43
2017-11-20T13:29:10.710Z,83.44
2017-11-20T13:30:17.874Z,83.45
2017-11-20T13:31:24.817Z,83.47
2017-11-20T13:32:31.847Z,83.47
2017-11-20T13:33:38.867Z,83.49
2017-11-20T13:34:45.839Z,83.52
2017-11-20T13:35:52.914Z,83.49
2017-11-20T13:37:00.074Z,83.47
2017-11-20T13:38:07.192Z,83.49
2017-11-20T13:39:13.848Z,83.48
2017-11-20T13:40:20.906Z,83.49
2017-11-20T13:41:27.985Z,83.47
2017-11-20T13:42:35.242Z,83.48
2017-11-20T13:43:41.865Z,83.54
2017-11-20T13:44:49.069Z,83.51
2017-11-20T13:45:55.775Z,83.51
2017-11-20T13:47:02.680Z,83.54
2017-11-20T13:48:09.844Z,83.58
2017-11-20T13:49:16.926Z,83.61
2017-11-20T13:50:23.548Z,83.58
2017-11-20T13:51:30.572Z,83.60
2017-11-20T13:52:37.577Z,83.65
2017-11-20T13:53:44.502Z,83.63
2017-11-20T13:54:51.971Z,83.64
2017-11-20T13:55:58.605Z,83.66
2017-11-20T13:57:04.998Z,83.67
2017-11-20T13:58:12.061Z,83.69
2017-11-20T13:59:18.918Z,83.68
2017-11-20T14:00:26.011Z,83.71
2017-11-20T14:01:32.718Z,83.72
2017-11-20T14:02:39.742Z,83.78
2017-11-20T14:03:46.641Z,83.77
2017-11-20T14:04:53.758Z,83.81
2017-11-20T14:06:00.341Z,83.83
2017-11-20T14:07:07.163Z,83.83
2017-11-20T14:08:14.113Z,83.89
2017-11-20T14:09:21.066Z,83.93
2017-11-20T14:10:28.068Z,83.94
2017-11-20T14:11:35.113Z,83.98
2017-11-20T14:12:42.097Z,83.97
2017-11-20T14:13:49.077Z,83.98
2017-11-20T14:14:55.998Z,84.00
2017-11-20T14:16:03.003Z,84.03
2017-11-20T14:17:10.034Z,84.04
2017-11-20T14:18:16.994Z,84.07
2017-11-20T14:19:23.975Z,84.07
2017-11-20T14:20:31.013Z,84.09
2017-11-20T14:21:38.167Z,84.12
2017-11-20T14:22:44.674Z,84.14
2017-11-20T14:23:51.610Z,84.20
2017-11-20T14:24:58.433Z,84.20
2017-11-20T14:26:05.332Z,84.21
2017-11-20T14:27:12.467Z,84.24
2017-11-20T14:28:19.672Z,84.25
2017-11-20T14:29:26.343Z,84.31
2017-11-20T14:30:33.517Z,84.31